ZSPD/PVG METAR and TAF weather

Enter ICAO airport designator
Station Type Date Time Source
ZSPD METAR 2021/07/28 19:00 UTC NOAA

ZSPD 281900Z 15007MPS 9999 BKN009 27/26 Q0997 NOSIG


Station Type Date Time Source
ZSPD Decoded METAR 2021/07/28 19:00 UTC NOAA

Shanghai / Pudong, China (ZSPD) 31-07N 121-46E
Jul 28, 2021 - 03:00 PM EDT / 2021.07.28 1900 UTC
Wind: from the SSE (150 degrees) at 16 MPH (14 KT):0
Visibility: greater than 7 mile(s):0
Sky conditions: mostly cloudy
Temperature: 80 F (27 C)
Dew Point: 78 F (26 C)
Relative Humidity: 94%
Pressure (altimeter): 29.44 in. Hg (0997 hPa)
ob: ZSPD 281900Z 15007MPS 9999 BKN009 27/26 Q0997 NOSIG
cycle: 19

Station Type Date Time Source
ZSPD TAF 2021/07/28 18:03 UTC NOAA

TAF ZSPD 281507Z 2818/2918 15007MPS 6000 BKN009 TX31/2906Z TN26/2820Z
BECMG 2900/2901 BKN010
BECMG 2902/2903 BKN015

Example: see airport list